createdAt,value
2018-06-11T00:01:39.048Z,18.60
2018-06-11T00:04:07.156Z,18.60
2018-06-11T00:06:35.297Z,18.50
2018-06-11T00:09:03.778Z,18.50
2018-06-11T00:11:31.841Z,18.50
2018-06-11T00:13:59.909Z,18.50
2018-06-11T00:16:28.024Z,18.50
2018-06-11T00:18:56.400Z,18.50
2018-06-11T00:21:24.556Z,18.50
2018-06-11T00:23:52.670Z,18.50
2018-06-11T00:26:20.780Z,18.40
2018-06-11T00:28:48.872Z,18.40
2018-06-11T00:31:16.964Z,18.30
2018-06-11T00:33:45.036Z,18.30
2018-06-11T00:36:13.128Z,18.30
2018-06-11T00:38:41.183Z,18.30
2018-06-11T00:41:09.263Z,18.20
2018-06-11T00:46:05.234Z,18.20
2018-06-11T00:48:33.309Z,18.20
2018-06-11T00:51:01.399Z,18.20
2018-06-11T00:53:29.465Z,18.20
2018-06-11T00:56:05.934Z,18.10
2018-06-11T00:58:34.119Z,18.10
2018-06-11T01:01:02.325Z,18.10
2018-06-11T01:03:30.594Z,18.10
2018-06-11T01:05:58.666Z,18.00
2018-06-11T01:08:26.754Z,18.00
2018-06-11T01:10:54.858Z,18.00
2018-06-11T01:13:22.899Z,18.00
2018-06-11T01:15:50.967Z,18.00
2018-06-11T01:18:19.066Z,18.00
2018-06-11T01:20:47.144Z,18.00
2018-06-11T01:23:15.235Z,18.00
2018-06-11T01:25:43.353Z,18.00
2018-06-11T01:28:11.414Z,17.90
2018-06-11T01:30:39.502Z,17.90
2018-06-11T01:33:07.570Z,17.90
2018-06-11T01:35:35.674Z,17.90
2018-06-11T01:38:03.759Z,17.90
2018-06-11T01:40:31.879Z,17.90
2018-06-11T01:43:00.027Z,17.90
2018-06-11T01:45:28.109Z,17.90
2018-06-11T01:47:56.175Z,17.90
2018-06-11T01:50:24.270Z,17.90
2018-06-11T01:52:52.359Z,17.80
2018-06-11T01:55:20.495Z,17.80
2018-06-11T01:57:48.603Z,17.80
2018-06-11T02:00:16.674Z,17.80
2018-06-11T02:02:44.770Z,17.80
2018-06-11T02:05:12.819Z,17.70
2018-06-11T02:07:40.914Z,17.70
2018-06-11T02:10:09.389Z,17.70
2018-06-11T02:12:37.527Z,17.70
2018-06-11T02:15:05.815Z,17.70
2018-06-11T02:17:33.955Z,17.70
2018-06-11T02:22:30.054Z,17.60
2018-06-11T02:24:58.114Z,17.60
2018-06-11T02:27:26.196Z,17.60
2018-06-11T02:29:54.240Z,17.60
2018-06-11T02:32:22.310Z,17.60
2018-06-11T02:34:50.412Z,17.50
2018-06-11T02:37:18.492Z,17.50
2018-06-11T02:39:46.543Z,17.50
2018-06-11T02:42:14.617Z,17.50
2018-06-11T02:44:42.678Z,17.50
2018-06-11T02:47:10.837Z,17.40
2018-06-11T02:49:38.918Z,17.40
2018-06-11T02:52:07.028Z,17.40
2018-06-11T02:54:35.163Z,17.30
2018-06-11T02:57:03.379Z,17.30
2018-06-11T02:59:31.475Z,17.30
2018-06-11T03:01:59.570Z,17.20
2018-06-11T03:04:27.659Z,17.20
2018-06-11T03:06:55.727Z,17.20
2018-06-11T03:09:23.796Z,17.20
2018-06-11T03:11:51.874Z,17.30
2018-06-11T03:14:19.995Z,17.30
2018-06-11T03:16:48.099Z,17.40
2018-06-11T03:19:16.178Z,17.40
2018-06-11T03:21:44.247Z,17.50
2018-06-11T03:26:40.329Z,17.50
2018-06-11T03:29:08.468Z,17.60
2018-06-11T03:31:36.542Z,17.60
2018-06-11T03:34:04.658Z,17.70
2018-06-11T03:36:32.775Z,17.70
2018-06-11T03:39:00.961Z,17.70
2018-06-11T03:41:29.020Z,17.80
2018-06-11T03:43:57.100Z,17.80
2018-06-11T03:46:25.164Z,17.80
2018-06-11T03:48:53.287Z,17.80
2018-06-11T03:51:21.367Z,17.80
2018-06-11T03:53:49.464Z,17.80
2018-06-11T03:56:17.535Z,17.90
2018-06-11T03:58:45.629Z,17.90
2018-06-11T04:01:13.696Z,18.00
2018-06-11T04:03:41.776Z,18.00
2018-06-11T04:06:09.881Z,18.00
2018-06-11T04:08:37.987Z,18.10
2018-06-11T04:11:06.158Z,18.10
2018-06-11T04:13:34.179Z,18.10
2018-06-11T04:16:02.252Z,18.10
2018-06-11T04:18:30.420Z,18.10
2018-06-11T04:20:58.500Z,18.10
2018-06-11T04:23:26.593Z,18.10
2018-06-11T04:25:54.691Z,18.10
2018-06-11T04:28:22.796Z,18.10
2018-06-11T04:30:50.918Z,18.10
2018-06-11T04:33:18.982Z,18.10
2018-06-11T04:35:47.084Z,18.10
2018-06-11T04:38:15.181Z,18.10
2018-06-11T04:40:43.268Z,18.20
2018-06-11T04:43:11.433Z,18.10
2018-06-11T04:45:39.546Z,18.10
2018-06-11T04:48:07.707Z,18.20
2018-06-11T04:50:35.820Z,18.20
2018-06-11T04:53:03.953Z,18.20
2018-06-11T04:55:32.076Z,18.30
2018-06-11T04:58:00.187Z,18.30
2018-06-11T05:00:28.372Z,18.30
2018-06-11T05:02:56.479Z,18.30
2018-06-11T05:05:24.622Z,18.40
2018-06-11T05:07:52.878Z,18.40
2018-06-11T05:10:21.003Z,18.40
2018-06-11T05:12:49.156Z,18.40
2018-06-11T05:15:17.296Z,18.50
2018-06-11T05:17:45.402Z,18.50
2018-06-11T05:20:13.510Z,18.50
2018-06-11T05:22:41.588Z,18.60
2018-06-11T05:25:09.685Z,18.60
2018-06-11T05:27:37.757Z,18.60
2018-06-11T05:30:05.834Z,18.60
2018-06-11T05:32:33.938Z,18.70
2018-06-11T05:35:02.018Z,18.80
2018-06-11T05:37:30.208Z,18.80
2018-06-11T05:39:58.285Z,18.80
2018-06-11T05:42:26.397Z,18.80
2018-06-11T05:44:54.483Z,18.80
2018-06-11T05:47:22.635Z,18.80
2018-06-11T05:49:50.774Z,18.80
2018-06-11T05:52:18.884Z,18.80
2018-06-11T05:54:46.954Z,18.80
2018-06-11T05:57:15.055Z,18.90
2018-06-11T05:59:43.119Z,18.90
2018-06-11T06:02:11.195Z,18.90
2018-06-11T06:04:39.267Z,19.00
2018-06-11T06:07:07.403Z,19.00
2018-06-11T06:09:35.536Z,19.10
2018-06-11T06:12:03.708Z,19.20
2018-06-11T06:14:31.857Z,19.20
2018-06-11T06:16:59.991Z,19.20
2018-06-11T06:19:28.100Z,19.20
2018-06-11T06:21:56.171Z,19.30
2018-06-11T06:24:24.227Z,19.50
2018-06-11T06:29:20.263Z,19.60
2018-06-11T06:34:16.335Z,20.10
2018-06-11T06:36:44.395Z,20.20
2018-06-11T06:39:12.534Z,20.30
2018-06-11T06:41:40.690Z,20.40
2018-06-11T06:44:08.845Z,20.40
2018-06-11T06:46:36.917Z,20.40
2018-06-11T06:49:05.046Z,20.20
2018-06-11T06:51:33.187Z,20.20
2018-06-11T06:54:01.368Z,20.30
2018-06-11T06:56:29.554Z,20.50
2018-06-11T06:58:57.681Z,20.70
2018-06-11T07:01:25.748Z,21.00
2018-06-11T07:03:53.823Z,21.10
2018-06-11T07:06:21.908Z,21.20
2018-06-11T07:08:50.080Z,21.30
2018-06-11T07:11:18.224Z,21.40
2018-06-11T07:13:46.377Z,21.30
2018-06-11T07:16:14.460Z,21.20
2018-06-11T07:18:42.645Z,21.20
2018-06-11T07:21:10.891Z,20.90
2018-06-11T07:23:38.989Z,20.80
2018-06-11T07:26:07.103Z,20.90
2018-06-11T07:28:35.296Z,21.10
2018-06-11T07:31:03.491Z,21.20
2018-06-11T07:33:31.578Z,21.30
2018-06-11T07:35:59.715Z,21.50
2018-06-11T07:38:27.840Z,21.40
2018-06-11T07:40:55.992Z,21.50
2018-06-11T07:43:24.068Z,21.40
2018-06-11T07:45:52.147Z,21.60
2018-06-11T07:48:20.248Z,21.50
2018-06-11T07:50:48.401Z,21.40
2018-06-11T07:53:16.460Z,21.10
2018-06-11T07:55:44.586Z,20.80
2018-06-11T07:58:12.683Z,20.70
2018-06-11T08:00:40.834Z,20.60
2018-06-11T08:03:08.985Z,20.90
2018-06-11T08:05:37.118Z,21.60
2018-06-11T08:08:05.230Z,22.30
2018-06-11T08:10:33.339Z,22.40
2018-06-11T08:13:01.435Z,22.50
2018-06-11T08:15:29.537Z,22.60
2018-06-11T08:17:57.643Z,22.70
2018-06-11T08:20:25.751Z,22.50
2018-06-11T08:22:53.826Z,22.20
2018-06-11T08:25:21.968Z,22.10
2018-06-11T08:27:50.069Z,21.90
2018-06-11T08:30:18.158Z,21.70
2018-06-11T08:32:46.256Z,22.00
2018-06-11T08:35:14.322Z,22.20
2018-06-11T08:37:42.461Z,22.10
2018-06-11T08:40:10.614Z,22.20
2018-06-11T08:42:38.719Z,22.50
2018-06-11T08:45:06.815Z,22.70
2018-06-11T08:47:34.966Z,23.00
2018-06-11T08:50:03.105Z,22.90
2018-06-11T08:54:59.199Z,22.10
2018-06-11T08:57:27.342Z,21.70
2018-06-11T08:59:55.446Z,21.90
2018-06-11T09:02:23.563Z,22.00
2018-06-11T09:04:51.695Z,22.20
2018-06-11T09:07:19.799Z,22.20
2018-06-11T09:09:47.916Z,22.40
2018-06-11T09:12:16.036Z,22.60
2018-06-11T09:14:44.145Z,22.70
2018-06-11T09:17:12.266Z,22.90
2018-06-11T09:19:40.371Z,22.70
2018-06-11T09:22:08.466Z,22.40
2018-06-11T09:24:36.606Z,22.10
2018-06-11T09:27:04.738Z,22.10
2018-06-11T09:29:32.871Z,22.00
2018-06-11T09:32:00.964Z,22.10
2018-06-11T09:34:29.046Z,22.40
2018-06-11T09:36:57.187Z,22.70
2018-06-11T09:39:25.351Z,22.60
2018-06-11T09:41:53.520Z,22.50
2018-06-11T09:44:21.660Z,22.40
2018-06-11T09:46:49.747Z,22.40
2018-06-11T09:49:17.838Z,22.70
2018-06-11T09:51:45.974Z,22.90
2018-06-11T09:54:14.125Z,22.70
2018-06-11T09:56:42.216Z,22.80
2018-06-11T10:01:38.329Z,23.20
2018-06-11T10:04:06.484Z,23.60
2018-06-11T10:06:34.678Z,23.70
2018-06-11T10:09:02.825Z,23.40
2018-06-11T10:11:31.028Z,23.00
2018-06-11T10:13:59.170Z,22.40
2018-06-11T10:16:27.248Z,22.20
2018-06-11T10:18:55.367Z,22.30
2018-06-11T10:21:23.458Z,22.40
2018-06-11T10:23:51.626Z,22.40
2018-06-11T10:26:19.767Z,22.50
2018-06-11T10:28:47.857Z,22.50
2018-06-11T10:31:15.973Z,22.50
2018-06-11T10:33:44.101Z,22.60
2018-06-11T10:36:12.212Z,22.70
2018-06-11T10:38:40.288Z,22.60
2018-06-11T10:41:08.401Z,22.80
2018-06-11T10:43:36.467Z,22.90
2018-06-11T10:46:04.590Z,22.80
2018-06-11T10:48:32.679Z,23.10
2018-06-11T10:51:00.768Z,23.10
2018-06-11T10:53:28.942Z,23.10
2018-06-11T10:55:57.014Z,23.40
2018-06-11T10:58:25.072Z,23.40
2018-06-11T11:00:53.207Z,23.30
2018-06-11T11:03:21.372Z,23.40
2018-06-11T11:05:49.735Z,23.20
2018-06-11T11:08:17.795Z,23.20
2018-06-11T11:10:45.951Z,23.30
2018-06-11T11:13:14.015Z,23.50
2018-06-11T11:15:42.112Z,23.70
2018-06-11T11:18:10.218Z,23.70
2018-06-11T11:20:38.293Z,23.50
2018-06-11T11:23:06.382Z,23.30
2018-06-11T11:25:34.503Z,23.30
2018-06-11T11:28:02.852Z,23.30
2018-06-11T11:32:58.843Z,23.40
2018-06-11T11:35:26.947Z,23.40
2018-06-11T11:37:55.034Z,23.50
2018-06-11T11:40:23.108Z,23.60
2018-06-11T11:42:51.194Z,23.40
2018-06-11T11:45:19.360Z,23.50
2018-06-11T11:47:47.471Z,23.50
2018-06-11T11:50:15.592Z,23.70
2018-06-11T11:52:43.767Z,23.70
2018-06-11T11:55:11.907Z,23.50
2018-06-11T11:57:40.033Z,23.60
2018-06-11T12:00:08.091Z,23.50
2018-06-11T12:02:36.192Z,23.50
2018-06-11T12:05:04.271Z,23.60
2018-06-11T12:07:32.538Z,23.70
2018-06-11T12:10:00.569Z,23.90
2018-06-11T12:12:28.654Z,24.00
2018-06-11T12:14:56.755Z,24.10
2018-06-11T12:17:24.883Z,24.10
2018-06-11T12:19:52.960Z,24.10
2018-06-11T12:22:21.063Z,24.20
2018-06-11T12:24:49.205Z,24.00
2018-06-11T12:27:17.322Z,24.10
2018-06-11T12:29:45.410Z,24.30
2018-06-11T12:32:13.627Z,24.50
2018-06-11T12:34:41.731Z,24.50
2018-06-11T12:37:09.869Z,24.40
2018-06-11T12:39:38.014Z,24.50
2018-06-11T12:42:06.128Z,24.50
2018-06-11T12:44:34.295Z,24.50
2018-06-11T12:47:02.431Z,24.30
2018-06-11T12:49:31.418Z,24.30
2018-06-11T12:51:59.577Z,24.50
2018-06-11T12:56:55.675Z,24.50
2018-06-11T12:59:23.837Z,24.60
2018-06-11T13:01:51.909Z,24.70
2018-06-11T13:04:20.020Z,24.80
2018-06-11T13:06:48.142Z,24.90
2018-06-11T13:09:16.298Z,24.70
2018-06-11T13:11:44.376Z,24.60
2018-06-11T13:16:40.409Z,24.60
2018-06-11T13:19:08.560Z,24.70
2018-06-11T13:21:37.008Z,24.70
2018-06-11T13:24:05.169Z,24.80
2018-06-11T13:26:33.296Z,24.70
2018-06-11T13:29:01.454Z,24.60
2018-06-11T13:31:29.562Z,24.60
2018-06-11T13:33:58.622Z,24.60
2018-06-11T13:36:26.751Z,24.80
2018-06-11T13:38:54.942Z,24.80
2018-06-11T13:41:23.458Z,24.80
2018-06-11T13:43:51.598Z,24.70
2018-06-11T13:46:19.666Z,24.60
2018-06-11T13:48:47.773Z,24.70
2018-06-11T13:51:15.904Z,24.60
2018-06-11T13:53:44.113Z,24.50
2018-06-11T13:56:12.185Z,24.40
2018-06-11T13:58:40.304Z,24.40
2018-06-11T14:01:08.456Z,24.60
2018-06-11T14:03:36.629Z,24.60
2018-06-11T14:06:04.943Z,24.70
2018-06-11T14:08:33.027Z,24.60
2018-06-11T14:11:01.507Z,24.70
2018-06-11T14:13:29.601Z,24.80
2018-06-11T14:18:25.834Z,24.80
2018-06-11T14:20:53.981Z,24.90
2018-06-11T14:23:22.060Z,24.90
2018-06-11T14:25:50.229Z,24.90
2018-06-11T14:28:18.474Z,24.90
2018-06-11T14:30:46.551Z,25.00
2018-06-11T14:33:14.657Z,24.90
2018-06-11T14:35:42.739Z,24.90
2018-06-11T14:38:10.853Z,24.90
2018-06-11T14:40:39.000Z,24.90
2018-06-11T14:45:35.057Z,24.90
2018-06-11T14:48:03.172Z,25.00
2018-06-11T14:50:31.262Z,25.00
2018-06-11T14:52:59.346Z,25.00
2018-06-11T14:55:28.919Z,24.90
2018-06-11T14:57:57.249Z,25.00
2018-06-11T15:00:25.321Z,25.00
2018-06-11T15:02:53.558Z,25.00
2018-06-11T15:05:21.659Z,25.10
2018-06-11T15:07:49.766Z,25.10
2018-06-11T15:10:17.992Z,25.00
2018-06-11T15:12:47.255Z,24.90
2018-06-11T15:15:15.551Z,24.80
2018-06-11T15:17:43.834Z,24.80
2018-06-11T15:20:12.321Z,24.80
2018-06-11T15:22:41.745Z,24.70
2018-06-11T15:25:09.807Z,24.50
2018-06-11T15:27:37.941Z,24.50
2018-06-11T15:30:08.933Z,24.50
2018-06-11T15:32:37.345Z,24.50
2018-06-11T15:35:06.653Z,24.50
2018-06-11T15:37:34.754Z,24.50
2018-06-11T15:40:02.848Z,24.60
2018-06-11T15:42:31.192Z,24.60
2018-06-11T15:44:59.458Z,24.60
2018-06-11T15:47:27.571Z,24.50
2018-06-11T15:49:55.665Z,24.50
2018-06-11T15:52:23.782Z,24.50
2018-06-11T15:54:52.295Z,24.50
2018-06-11T15:57:20.452Z,24.60
2018-06-11T15:59:48.591Z,24.60
2018-06-11T16:02:16.698Z,24.50
2018-06-11T16:04:44.879Z,24.40
2018-06-11T16:07:12.996Z,24.50
2018-06-11T16:09:41.160Z,24.40
2018-06-11T16:12:09.219Z,24.40
2018-06-11T16:14:37.775Z,24.30
2018-06-11T16:17:06.428Z,24.30
2018-06-11T16:19:34.886Z,24.10
2018-06-11T16:22:04.060Z,24.00
2018-06-11T16:24:32.166Z,23.90
2018-06-11T16:27:00.261Z,23.90
2018-06-11T16:29:28.356Z,24.00
2018-06-11T16:31:56.428Z,24.10
2018-06-11T16:34:24.558Z,24.10
2018-06-11T16:36:52.680Z,24.10
2018-06-11T16:39:20.760Z,24.10
2018-06-11T16:41:48.831Z,24.10
2018-06-11T16:44:18.752Z,24.00
2018-06-11T16:46:46.800Z,24.00
2018-06-11T16:49:14.886Z,23.90
2018-06-11T16:51:42.946Z,24.00
2018-06-11T16:54:11.064Z,23.90
2018-06-11T16:56:39.227Z,23.80
2018-06-11T16:59:07.299Z,23.70
2018-06-11T17:01:35.398Z,23.60
2018-06-11T17:04:04.715Z,23.60
2018-06-11T17:06:32.804Z,23.60
2018-06-11T17:13:56.760Z,23.60
2018-06-11T17:16:24.834Z,23.60
2018-06-11T17:18:52.944Z,23.60
2018-06-11T17:21:21.042Z,23.50
2018-06-11T17:26:17.147Z,23.40
2018-06-11T17:28:45.578Z,23.40
2018-06-11T17:31:13.746Z,23.30
2018-06-11T17:33:41.859Z,23.20
2018-06-11T17:36:10.245Z,23.00
2018-06-11T17:38:38.474Z,23.00
2018-06-11T17:41:06.582Z,22.90
2018-06-11T17:43:35.003Z,22.90
2018-06-11T17:46:03.522Z,22.80
2018-06-11T17:48:31.636Z,22.80
2018-06-11T17:50:59.904Z,22.90
2018-06-11T17:53:28.092Z,22.90
2018-06-11T17:55:56.175Z,22.90
2018-06-11T17:58:24.367Z,22.80
2018-06-11T18:00:52.580Z,22.80
2018-06-11T18:03:20.727Z,22.80
2018-06-11T18:05:48.824Z,22.70
2018-06-11T18:08:16.992Z,22.70
2018-06-11T18:10:45.114Z,22.70
2018-06-11T18:13:13.158Z,22.60
2018-06-11T18:15:41.269Z,22.60
2018-06-11T18:18:09.406Z,22.60
2018-06-11T18:20:37.555Z,22.60
2018-06-11T18:23:05.663Z,22.60
2018-06-11T18:25:33.871Z,22.50
2018-06-11T18:28:10.217Z,22.40
2018-06-11T18:30:38.814Z,22.40
2018-06-11T18:33:09.744Z,22.40
2018-06-11T18:35:38.241Z,22.30
2018-06-11T18:38:06.373Z,22.30
2018-06-11T18:40:34.479Z,22.30
2018-06-11T18:43:03.163Z,22.20
2018-06-11T18:45:31.286Z,22.20
2018-06-11T18:47:59.409Z,22.10
2018-06-11T18:50:27.587Z,22.10
2018-06-11T18:52:55.691Z,22.00
2018-06-11T18:55:23.788Z,22.00
2018-06-11T18:57:51.858Z,22.00
2018-06-11T19:00:19.973Z,22.00
2018-06-11T19:02:48.087Z,21.90
2018-06-11T19:05:16.183Z,21.90
2018-06-11T19:07:44.327Z,21.80
2018-06-11T19:10:12.460Z,21.80
2018-06-11T19:12:40.577Z,21.80
2018-06-11T19:15:08.694Z,21.80
2018-06-11T19:17:36.811Z,21.70
2018-06-11T19:20:04.929Z,21.70
2018-06-11T19:25:00.951Z,21.70
2018-06-11T19:27:29.108Z,21.70
2018-06-11T19:29:57.236Z,21.70
2018-06-11T19:32:25.358Z,21.60
2018-06-11T19:34:53.457Z,21.60
2018-06-11T19:37:21.566Z,21.50
2018-06-11T19:39:49.665Z,21.40
2018-06-11T19:42:17.764Z,21.40
2018-06-11T19:44:45.931Z,21.30
2018-06-11T19:47:14.113Z,21.40
2018-06-11T19:49:42.257Z,21.30
2018-06-11T19:52:10.462Z,21.30
2018-06-11T19:54:38.615Z,21.30
2018-06-11T19:57:06.739Z,21.20
2018-06-11T19:59:34.870Z,21.20
2018-06-11T20:02:03.001Z,21.10
2018-06-11T20:06:59.098Z,21.10
2018-06-11T20:09:27.223Z,21.10
2018-06-11T20:11:55.296Z,21.10
2018-06-11T20:14:23.418Z,21.10
2018-06-11T20:16:51.541Z,21.10
2018-06-11T20:19:19.663Z,21.10
2018-06-11T20:21:47.721Z,21.00
2018-06-11T20:24:15.768Z,21.00
2018-06-11T20:26:43.912Z,21.00
2018-06-11T20:29:11.991Z,20.90
2018-06-11T20:31:40.075Z,20.90
2018-06-11T20:34:08.139Z,20.80
2018-06-11T20:36:36.251Z,20.80
2018-06-11T20:39:07.033Z,20.80
2018-06-11T20:41:35.115Z,20.70
2018-06-11T20:44:03.295Z,20.70
2018-06-11T20:46:31.388Z,20.60
2018-06-11T20:48:59.634Z,20.50
2018-06-11T20:51:27.747Z,20.50
2018-06-11T20:53:55.847Z,20.40
2018-06-11T20:56:23.931Z,20.40
2018-06-11T20:58:52.034Z,20.40
2018-06-11T21:01:20.110Z,20.40
2018-06-11T21:03:48.256Z,20.40
2018-06-11T21:06:16.371Z,20.40
2018-06-11T21:08:44.494Z,20.30
2018-06-11T21:11:12.659Z,20.30
2018-06-11T21:13:40.748Z,20.30
2018-06-11T21:16:08.840Z,20.20
2018-06-11T21:18:37.061Z,20.20
2018-06-11T21:21:05.184Z,20.10
2018-06-11T21:23:33.280Z,20.10
2018-06-11T21:26:01.331Z,20.10
2018-06-11T21:28:29.435Z,20.10
2018-06-11T21:30:57.491Z,20.00
2018-06-11T21:33:25.567Z,20.00
2018-06-11T21:35:53.740Z,19.90
2018-06-11T21:38:21.869Z,19.80
2018-06-11T21:40:49.944Z,19.80
2018-06-11T21:43:18.121Z,19.70
2018-06-11T21:45:46.196Z,19.70
2018-06-11T21:48:14.297Z,19.60
2018-06-11T21:50:42.404Z,19.60
2018-06-11T21:53:10.558Z,19.50
2018-06-11T21:55:38.681Z,19.50
2018-06-11T21:58:06.795Z,19.50
2018-06-11T22:00:35.195Z,19.40
2018-06-11T22:03:03.274Z,19.40
2018-06-11T22:05:31.396Z,19.40
2018-06-11T22:07:59.467Z,19.30
2018-06-11T22:10:27.565Z,19.30
2018-06-11T22:12:55.676Z,19.30
2018-06-11T22:15:23.781Z,19.20
2018-06-11T22:17:51.826Z,19.20
2018-06-11T22:20:19.904Z,19.10
2018-06-11T22:22:47.962Z,19.00
2018-06-11T22:25:16.076Z,19.00
2018-06-11T22:27:44.163Z,18.90
2018-06-11T22:30:12.391Z,18.90
2018-06-11T22:35:08.436Z,18.80
2018-06-11T22:37:36.562Z,18.80
2018-06-11T22:40:04.773Z,18.70
2018-06-11T22:42:32.868Z,18.70
2018-06-11T22:45:00.967Z,18.60
2018-06-11T22:47:29.071Z,18.60
2018-06-11T22:49:57.178Z,18.50
2018-06-11T22:52:25.282Z,18.50
2018-06-11T22:54:53.380Z,18.40
2018-06-11T22:57:21.464Z,18.40
2018-06-11T22:59:49.584Z,18.40
2018-06-11T23:02:17.659Z,18.30
2018-06-11T23:07:13.654Z,18.30
2018-06-11T23:09:41.756Z,18.20
2018-06-11T23:12:09.844Z,18.20
2018-06-11T23:14:37.910Z,18.20
2018-06-11T23:17:06.035Z,18.10
2018-06-11T23:19:34.148Z,18.10
2018-06-11T23:22:02.260Z,18.00
2018-06-11T23:24:30.303Z,18.00
2018-06-11T23:26:58.399Z,18.00
2018-06-11T23:29:26.484Z,17.90
2018-06-11T23:31:54.603Z,17.90
2018-06-11T23:34:22.680Z,17.90
2018-06-11T23:36:50.741Z,17.80
2018-06-11T23:39:18.824Z,17.80
2018-06-11T23:41:46.927Z,17.70
2018-06-11T23:44:15.073Z,17.70
2018-06-11T23:46:43.192Z,17.70
2018-06-11T23:49:11.266Z,17.70
2018-06-11T23:51:39.343Z,17.60
2018-06-11T23:54:07.425Z,17.60
2018-06-11T23:56:35.510Z,17.60
2018-06-11T23:59:03.583Z,17.50
